createdAt,value
2023-03-03T06:25:24.587Z,0.00
2023-03-03T06:26:24.580Z,5.62
2023-03-03T06:27:24.545Z,5.62
2023-03-03T06:28:24.527Z,5.62
2023-03-03T06:29:24.539Z,5.62
2023-03-03T06:30:24.495Z,5.62
2023-03-03T06:31:24.588Z,5.62
2023-03-03T06:32:24.592Z,5.62
2023-03-03T06:33:24.451Z,5.62
2023-03-03T06:34:24.517Z,5.62
2023-03-03T06:35:24.536Z,5.62
2023-03-03T06:36:24.511Z,5.62
2023-03-03T06:37:24.420Z,5.62
2023-03-03T06:38:24.397Z,11.25
2023-03-03T06:39:24.398Z,11.25
2023-03-03T06:40:24.399Z,11.25
2023-03-03T06:41:24.360Z,11.25
2023-03-03T06:42:24.341Z,11.25
2023-03-03T06:43:24.362Z,11.25
2023-03-03T06:44:24.293Z,11.25
2023-03-03T06:45:24.364Z,11.25
2023-03-03T06:46:24.282Z,11.25
2023-03-03T06:47:24.283Z,11.25
2023-03-03T06:48:24.297Z,11.25
2023-03-03T06:49:24.243Z,11.25
2023-03-03T06:50:24.219Z,16.88
2023-03-03T06:51:24.304Z,16.88
2023-03-03T06:52:24.240Z,16.88
2023-03-03T06:53:24.213Z,16.88
2023-03-03T06:54:26.542Z,16.88
2023-03-03T06:55:24.179Z,16.88
2023-03-03T06:56:24.160Z,16.88
2023-03-03T06:57:24.144Z,16.88
2023-03-03T06:58:24.179Z,16.88
2023-03-03T06:59:24.129Z,16.88
2023-03-03T07:00:24.104Z,22.50
2023-03-03T07:01:24.214Z,22.50
2023-03-03T07:02:24.093Z,22.50
2023-03-03T07:03:24.088Z,22.50
2023-03-03T07:04:24.053Z,22.50
2023-03-03T07:05:24.051Z,22.50
2023-03-03T07:06:24.033Z,22.50
2023-03-03T07:07:24.035Z,22.50
2023-03-03T07:08:24.120Z,22.50
2023-03-03T07:09:31.560Z,28.12
2023-03-03T07:10:24.009Z,28.12
2023-03-03T07:11:23.957Z,28.12
2023-03-03T07:12:23.976Z,28.12
2023-03-03T07:13:23.934Z,28.12
2023-03-03T07:14:23.923Z,28.12
2023-03-03T07:15:23.899Z,28.12
2023-03-03T07:16:23.962Z,33.75
2023-03-03T07:17:23.877Z,33.75
2023-03-03T07:18:23.889Z,33.75
2023-03-03T07:19:23.899Z,33.75
2023-03-03T07:20:23.923Z,33.75
2023-03-03T07:21:23.839Z,33.75
2023-03-03T07:22:23.828Z,33.75
2023-03-03T07:23:23.852Z,33.75
2023-03-03T07:24:23.893Z,33.75
2023-03-03T07:25:23.821Z,33.75
2023-03-03T07:26:23.766Z,33.75
2023-03-03T07:27:23.741Z,39.38
2023-03-03T07:28:23.747Z,39.38
2023-03-03T07:29:23.785Z,33.75
2023-03-03T07:30:23.724Z,39.38
2023-03-03T07:31:23.700Z,39.38
2023-03-03T07:32:23.760Z,39.38
2023-03-03T07:33:23.700Z,39.38
2023-03-03T07:34:23.692Z,39.38
2023-03-03T07:35:23.653Z,39.38
2023-03-03T07:36:23.641Z,39.38
2023-03-03T07:37:23.642Z,39.38
2023-03-03T07:38:23.618Z,39.38
2023-03-03T07:39:23.610Z,39.38
2023-03-03T07:40:23.587Z,39.38
2023-03-03T07:41:23.615Z,39.38
2023-03-03T07:42:23.574Z,39.38
2023-03-03T07:43:23.554Z,39.38
2023-03-03T07:44:23.574Z,45.00
2023-03-03T07:45:23.551Z,45.00
2023-03-03T07:46:23.563Z,45.00
2023-03-03T07:47:23.507Z,45.00
2023-03-03T07:48:23.461Z,45.00
2023-03-03T07:49:23.483Z,45.00
2023-03-03T07:50:23.454Z,45.00
2023-03-03T07:51:23.426Z,45.00
2023-03-03T07:52:23.474Z,45.00
2023-03-03T07:53:23.433Z,45.00
2023-03-03T07:54:23.462Z,50.62
2023-03-03T07:55:23.422Z,50.62
2023-03-03T07:56:23.370Z,50.62
2023-03-03T07:57:23.366Z,50.62
2023-03-03T07:58:23.364Z,50.62
2023-03-03T07:59:23.327Z,50.62
2023-03-03T08:00:23.320Z,50.62
2023-03-03T08:01:23.326Z,50.62
2023-03-03T08:02:23.349Z,50.62
2023-03-03T08:03:23.308Z,50.62
2023-03-03T08:04:23.397Z,50.62
2023-03-03T08:05:23.417Z,50.62
2023-03-03T08:06:23.268Z,50.62
2023-03-03T08:07:23.216Z,50.62
2023-03-03T08:08:23.240Z,50.62
2023-03-03T08:09:23.201Z,50.62
2023-03-03T08:10:23.318Z,50.62
2023-03-03T08:11:23.174Z,45.00
2023-03-03T08:12:23.187Z,45.00
2023-03-03T08:13:23.156Z,45.00
2023-03-03T08:14:23.162Z,45.00
2023-03-03T08:15:23.137Z,45.00
2023-03-03T08:16:23.167Z,45.00
2023-03-03T08:17:23.078Z,45.00
2023-03-03T08:18:23.058Z,50.62
2023-03-03T08:19:23.087Z,50.62
2023-03-03T08:20:23.076Z,50.62
2023-03-03T08:21:23.058Z,50.62
2023-03-03T08:22:23.026Z,56.25
2023-03-03T08:23:23.060Z,56.25
2023-03-03T08:24:23.045Z,56.25
2023-03-03T08:25:22.975Z,61.88
2023-03-03T08:26:22.977Z,61.88
2023-03-03T08:27:23.006Z,61.88
2023-03-03T08:28:22.963Z,61.88
2023-03-03T08:29:22.937Z,61.88
2023-03-03T08:30:22.955Z,61.88
2023-03-03T08:31:39.636Z,61.88
2023-03-03T08:32:23.959Z,61.88
2023-03-03T08:33:22.912Z,61.88
2023-03-03T08:34:22.892Z,61.88
2023-03-03T08:35:22.915Z,61.88
2023-03-03T08:36:22.856Z,61.88
2023-03-03T08:37:22.830Z,61.88
2023-03-03T08:38:22.801Z,61.88
2023-03-03T08:39:22.776Z,61.88
2023-03-03T08:40:22.795Z,61.88
2023-03-03T08:41:22.771Z,67.50
2023-03-03T08:42:22.761Z,67.50
2023-03-03T08:43:22.715Z,67.50
2023-03-03T08:44:22.720Z,67.50
2023-03-03T08:45:22.740Z,67.50
2023-03-03T08:46:22.723Z,67.50
2023-03-03T08:47:22.709Z,67.50
2023-03-03T08:48:22.662Z,67.50
2023-03-03T08:49:31.844Z,73.12
2023-03-03T08:50:31.234Z,78.75
2023-03-03T08:51:22.624Z,78.75
2023-03-03T08:52:22.605Z,78.75
2023-03-03T08:53:22.619Z,73.12
2023-03-03T08:54:22.647Z,73.12
2023-03-03T08:55:22.566Z,73.12
2023-03-03T08:56:22.559Z,73.12
2023-03-03T08:57:22.540Z,78.75
2023-03-03T08:58:33.441Z,78.75
2023-03-03T08:59:23.526Z,78.75
2023-03-03T09:00:22.496Z,78.75
2023-03-03T09:01:22.579Z,84.38
2023-03-03T09:02:22.492Z,84.38
2023-03-03T09:03:22.517Z,84.38
2023-03-03T09:04:22.531Z,78.75
2023-03-03T09:05:22.441Z,78.75
2023-03-03T09:06:22.440Z,73.12
2023-03-03T09:07:22.410Z,73.12
2023-03-03T09:08:22.415Z,78.75
2023-03-03T09:09:22.383Z,84.38
2023-03-03T09:10:22.358Z,90.00
2023-03-03T09:11:22.371Z,90.00
2023-03-03T09:12:22.346Z,84.38
2023-03-03T09:13:22.328Z,84.38
2023-03-03T09:14:22.323Z,90.00
2023-03-03T09:15:22.295Z,90.00
2023-03-03T09:16:22.437Z,95.62
2023-03-03T09:17:22.297Z,101.25
2023-03-03T09:18:22.259Z,101.25
2023-03-03T09:19:22.330Z,95.62
2023-03-03T09:20:22.232Z,90.00
2023-03-03T09:21:22.225Z,90.00
2023-03-03T09:22:22.198Z,90.00
2023-03-03T09:23:22.214Z,90.00
2023-03-03T09:24:22.179Z,90.00
2023-03-03T09:25:22.184Z,90.00
2023-03-03T09:26:22.182Z,90.00
2023-03-03T09:27:22.149Z,90.00
2023-03-03T09:28:22.119Z,95.62
2023-03-03T09:29:22.275Z,101.25
2023-03-03T09:30:22.105Z,106.88
2023-03-03T09:31:22.136Z,106.88
2023-03-03T09:32:22.152Z,112.50
2023-03-03T09:33:22.080Z,112.50
2023-03-03T09:34:22.073Z,112.50
2023-03-03T09:35:22.067Z,118.12
2023-03-03T09:36:22.017Z,129.38
2023-03-03T09:37:22.030Z,146.25
2023-03-03T09:38:22.029Z,140.62
2023-03-03T09:39:21.996Z,135.00
2023-03-03T09:40:21.967Z,123.75
2023-03-03T09:41:21.948Z,118.12
2023-03-03T09:42:21.937Z,123.75
2023-03-03T09:43:21.954Z,129.38
2023-03-03T09:44:21.918Z,129.38
2023-03-03T09:45:21.905Z,129.38
2023-03-03T09:46:21.942Z,135.00
2023-03-03T09:47:22.248Z,140.62
2023-03-03T09:48:21.889Z,140.62
2023-03-03T09:49:21.840Z,135.00
2023-03-03T09:50:21.869Z,129.38
2023-03-03T09:51:21.827Z,135.00
2023-03-03T09:52:21.806Z,140.62
2023-03-03T09:53:21.790Z,146.25
2023-03-03T09:54:21.781Z,151.88
2023-03-03T09:55:23.273Z,151.88
2023-03-03T09:56:21.757Z,157.50
2023-03-03T09:57:21.740Z,157.50
2023-03-03T09:58:21.742Z,157.50
2023-03-03T09:59:21.745Z,157.50
2023-03-03T10:00:21.716Z,157.50
2023-03-03T10:01:21.688Z,163.12
2023-03-03T10:02:21.732Z,168.75
2023-03-03T10:03:21.741Z,168.75
2023-03-03T10:04:21.758Z,168.75
2023-03-03T10:05:21.657Z,174.38
2023-03-03T10:06:21.660Z,168.75
2023-03-03T10:07:21.613Z,168.75
2023-03-03T10:08:21.626Z,168.75
2023-03-03T10:09:21.562Z,168.75
2023-03-03T10:10:21.636Z,174.38
2023-03-03T10:11:21.578Z,174.38
2023-03-03T10:12:21.548Z,168.75
2023-03-03T10:13:21.518Z,168.75
2023-03-03T10:14:21.533Z,163.12
2023-03-03T10:15:21.543Z,151.88
2023-03-03T10:16:21.625Z,151.88
2023-03-03T10:17:21.468Z,151.88
2023-03-03T10:18:21.456Z,151.88
2023-03-03T10:19:21.442Z,146.25
2023-03-03T10:20:21.440Z,146.25
2023-03-03T10:21:21.441Z,146.25
2023-03-03T10:22:21.401Z,146.25
2023-03-03T10:23:21.387Z,151.88
2023-03-03T10:24:21.423Z,146.25
2023-03-03T10:25:21.389Z,140.62
2023-03-03T10:26:25.069Z,135.00
2023-03-03T10:27:22.380Z,135.00
2023-03-03T10:28:21.324Z,135.00
2023-03-03T10:29:22.482Z,135.00
2023-03-03T10:30:37.029Z,129.38
2023-03-03T10:31:28.251Z,129.38
2023-03-03T10:32:22.412Z,123.75
2023-03-03T10:33:22.219Z,129.38
2023-03-03T10:34:21.287Z,135.00
2023-03-03T10:35:21.247Z,135.00
2023-03-03T10:36:21.260Z,140.62
2023-03-03T10:37:21.205Z,140.62
2023-03-03T10:38:21.247Z,135.00
2023-03-03T10:39:21.206Z,135.00
2023-03-03T10:40:21.181Z,135.00
2023-03-03T10:41:23.853Z,129.38
2023-03-03T10:42:21.234Z,129.38
2023-03-03T10:43:31.096Z,135.00
2023-03-03T10:44:22.384Z,135.00
2023-03-03T10:45:21.137Z,140.62
2023-03-03T10:46:21.198Z,146.25
2023-03-03T10:47:23.208Z,140.62
2023-03-03T10:48:21.150Z,140.62
2023-03-03T10:49:21.781Z,140.62
2023-03-03T10:50:21.091Z,140.62
2023-03-03T10:51:21.093Z,140.62
2023-03-03T10:52:21.034Z,140.62
2023-03-03T10:53:21.259Z,146.25
2023-03-03T10:54:21.053Z,151.88
2023-03-03T10:55:21.008Z,157.50
2023-03-03T10:56:20.970Z,157.50
2023-03-03T10:57:20.962Z,151.88
2023-03-03T10:58:21.002Z,151.88
2023-03-03T10:59:20.972Z,146.25
2023-03-03T11:00:21.080Z,146.25
2023-03-03T11:01:23.705Z,151.88
2023-03-03T11:02:20.897Z,146.25
2023-03-03T11:03:20.884Z,146.25
2023-03-03T11:04:20.893Z,151.88
2023-03-03T11:05:21.889Z,151.88
2023-03-03T11:06:20.882Z,151.88
2023-03-03T11:07:20.875Z,151.88
2023-03-03T11:08:20.861Z,157.50
2023-03-03T11:09:20.797Z,168.75
2023-03-03T11:10:20.827Z,174.38
2023-03-03T11:11:20.918Z,180.00
2023-03-03T11:12:22.545Z,174.38
2023-03-03T11:13:20.837Z,180.00
2023-03-03T11:14:20.838Z,180.00
2023-03-03T11:15:20.736Z,185.62
2023-03-03T11:16:20.771Z,185.62
2023-03-03T11:17:20.747Z,185.62
2023-03-03T11:18:23.819Z,180.00
2023-03-03T11:19:20.671Z,180.00
2023-03-03T11:20:20.663Z,180.00
2023-03-03T11:21:20.698Z,180.00
2023-03-03T11:22:20.661Z,185.62
2023-03-03T11:23:20.636Z,185.62
2023-03-03T11:24:20.595Z,185.62
2023-03-03T11:25:20.639Z,185.62
2023-03-03T11:26:20.556Z,191.25
2023-03-03T11:27:20.610Z,196.88
2023-03-03T11:28:20.543Z,196.88
2023-03-03T11:30:31.876Z,202.50
2023-03-03T11:31:32.162Z,202.50
2023-03-03T11:32:32.579Z,202.50
2023-03-03T11:33:31.813Z,202.50
2023-03-03T11:34:31.825Z,208.12
2023-03-03T11:35:31.836Z,213.75
2023-03-03T11:36:33.917Z,219.38
2023-03-03T11:37:31.761Z,225.00
2023-03-03T11:38:31.777Z,230.62
2023-03-03T11:39:31.730Z,241.88
2023-03-03T11:40:31.723Z,247.50
2023-03-03T11:41:31.734Z,253.12
2023-03-03T11:42:31.695Z,253.12
2023-03-03T11:43:36.954Z,253.12
2023-03-03T11:44:32.654Z,247.50
2023-03-03T11:45:31.658Z,247.50
2023-03-03T11:46:31.702Z,247.50
2023-03-03T11:47:32.167Z,247.50
2023-03-03T11:48:31.620Z,247.50
2023-03-03T11:49:31.597Z,247.50
2023-03-03T11:50:31.596Z,241.88
2023-03-03T11:51:31.593Z,241.88
2023-03-03T11:52:31.599Z,247.50
2023-03-03T11:53:31.547Z,247.50
2023-03-03T11:54:31.588Z,247.50
2023-03-03T11:55:31.539Z,241.88
2023-03-03T11:56:31.525Z,236.25
2023-03-03T11:57:31.499Z,236.25
2023-03-03T11:58:31.485Z,236.25
2023-03-03T11:59:31.455Z,230.62
2023-03-03T12:00:31.490Z,225.00
2023-03-03T12:01:31.472Z,219.38
2023-03-03T12:02:31.462Z,208.12
2023-03-03T12:03:31.439Z,202.50
2023-03-03T12:04:31.408Z,202.50
2023-03-03T12:05:38.984Z,202.50
2023-03-03T12:06:31.403Z,213.75
2023-03-03T12:07:31.362Z,225.00
2023-03-03T12:08:31.356Z,230.62
2023-03-03T12:09:31.349Z,230.62
2023-03-03T12:10:31.350Z,225.00
2023-03-03T12:11:31.305Z,219.38
2023-03-03T12:12:31.300Z,213.75
2023-03-03T12:13:31.308Z,213.75
2023-03-03T12:14:31.305Z,219.38
2023-03-03T12:15:31.261Z,225.00
2023-03-03T12:16:31.256Z,230.62
2023-03-03T12:17:31.245Z,241.88
2023-03-03T12:18:31.254Z,253.12
2023-03-03T12:19:31.240Z,247.50
2023-03-03T12:20:31.227Z,247.50
2023-03-03T12:21:31.283Z,253.12
2023-03-03T12:22:31.204Z,253.12
2023-03-03T12:23:31.195Z,247.50
2023-03-03T12:24:31.216Z,258.75
2023-03-03T12:25:31.169Z,253.12
2023-03-03T12:26:31.178Z,253.12
2023-03-03T12:27:31.150Z,264.38
2023-03-03T12:28:31.131Z,275.62
2023-03-03T12:29:31.122Z,281.25
2023-03-03T12:30:31.110Z,292.50
2023-03-03T12:31:31.156Z,298.12
2023-03-03T12:32:31.112Z,298.12
2023-03-03T12:33:31.051Z,281.25
2023-03-03T12:34:31.059Z,281.25
2023-03-03T12:35:31.107Z,292.50
2023-03-03T12:36:31.053Z,292.50
2023-03-03T12:37:31.025Z,315.00
2023-03-03T12:38:31.014Z,315.00
2023-03-03T12:39:35.037Z,270.00
2023-03-03T12:40:30.968Z,258.75
2023-03-03T12:41:30.970Z,264.38
2023-03-03T12:42:30.966Z,275.62
2023-03-03T12:43:30.938Z,292.50
2023-03-03T12:44:30.925Z,303.75
2023-03-03T12:45:30.893Z,382.50
2023-03-03T12:46:30.952Z,405.00
2023-03-03T12:47:30.893Z,376.88
2023-03-03T12:48:30.919Z,360.00
2023-03-03T12:49:42.538Z,303.75
2023-03-03T12:50:31.858Z,315.00
2023-03-03T12:51:30.860Z,253.12
2023-03-03T12:52:30.849Z,264.38
2023-03-03T12:53:30.875Z,258.75
2023-03-03T12:54:36.964Z,343.12
2023-03-03T12:55:31.790Z,331.88
2023-03-03T12:56:30.784Z,253.12
2023-03-03T12:57:30.833Z,253.12
2023-03-03T12:58:30.779Z,253.12
2023-03-03T12:59:30.736Z,241.88
2023-03-03T13:00:30.799Z,225.00
2023-03-03T13:01:30.807Z,219.38
2023-03-03T13:02:30.705Z,230.62
2023-03-03T13:03:32.234Z,213.75
2023-03-03T13:04:30.732Z,202.50
2023-03-03T13:05:30.670Z,196.88
2023-03-03T13:06:30.846Z,208.12
2023-03-03T13:07:30.641Z,219.38
2023-03-03T13:08:30.659Z,219.38
2023-03-03T13:09:30.735Z,219.38
2023-03-03T13:10:39.348Z,219.38
2023-03-03T13:11:30.589Z,225.00
2023-03-03T13:12:30.584Z,219.38
2023-03-03T13:13:30.534Z,213.75
2023-03-03T13:14:30.687Z,208.12
2023-03-03T13:15:33.250Z,270.00
2023-03-03T13:16:40.643Z,202.50
2023-03-03T13:17:31.528Z,275.62
2023-03-03T13:18:30.535Z,196.88
2023-03-03T13:19:30.476Z,281.25
2023-03-03T13:20:30.517Z,208.12
2023-03-03T13:21:30.483Z,202.50
2023-03-03T13:22:30.458Z,258.75
2023-03-03T13:23:30.481Z,303.75
2023-03-03T13:24:30.421Z,309.38
2023-03-03T13:25:30.471Z,270.00
2023-03-03T13:26:31.889Z,292.50
2023-03-03T13:27:30.407Z,292.50
2023-03-03T13:28:30.699Z,292.50
2023-03-03T13:29:30.351Z,292.50
2023-03-03T13:30:30.486Z,309.38
2023-03-03T13:31:30.553Z,315.00
2023-03-03T13:32:30.391Z,315.00
2023-03-03T13:33:30.324Z,309.38
2023-03-03T13:34:30.312Z,303.75
2023-03-03T13:35:30.306Z,315.00
2023-03-03T13:36:30.274Z,309.38
2023-03-03T13:37:30.312Z,275.62
2023-03-03T13:38:30.263Z,292.50
2023-03-03T13:39:30.258Z,292.50
2023-03-03T13:40:30.220Z,286.88
2023-03-03T13:41:30.224Z,191.25
2023-03-03T13:42:30.209Z,196.88
2023-03-03T13:43:30.184Z,258.75
2023-03-03T13:44:30.194Z,281.25
2023-03-03T13:45:30.221Z,219.38
2023-03-03T13:46:30.149Z,208.12
2023-03-03T13:47:30.131Z,303.75
2023-03-03T13:48:30.117Z,309.38
2023-03-03T13:49:30.151Z,303.75
2023-03-03T13:50:30.130Z,298.12
2023-03-03T13:51:30.117Z,298.12
2023-03-03T13:52:30.095Z,303.75
2023-03-03T13:53:30.094Z,298.12
2023-03-03T13:54:30.094Z,298.12
2023-03-03T13:55:30.029Z,286.88
2023-03-03T13:56:30.031Z,281.25
2023-03-03T13:57:30.076Z,292.50
2023-03-03T13:58:30.002Z,258.75
2023-03-03T13:59:30.010Z,174.38
2023-03-03T14:00:29.971Z,286.88
2023-03-03T14:01:30.064Z,298.12
2023-03-03T14:02:29.983Z,286.88
2023-03-03T14:03:29.954Z,264.38
2023-03-03T14:04:30.065Z,286.88
2023-03-03T14:05:29.976Z,258.75
2023-03-03T14:06:29.981Z,275.62
2023-03-03T14:07:29.946Z,219.38
2023-03-03T14:08:29.892Z,196.88
2023-03-03T14:09:29.850Z,275.62
2023-03-03T14:10:29.845Z,281.25
2023-03-03T14:11:29.838Z,230.62
2023-03-03T14:12:29.827Z,258.75
2023-03-03T14:13:29.790Z,146.25
2023-03-03T14:14:29.970Z,281.25
2023-03-03T14:15:29.763Z,281.25
2023-03-03T14:16:29.855Z,270.00
2023-03-03T14:17:29.749Z,281.25
2023-03-03T14:18:29.738Z,286.88
2023-03-03T14:19:29.733Z,292.50
2023-03-03T14:20:29.692Z,286.88
2023-03-03T14:21:29.672Z,286.88
2023-03-03T14:22:29.659Z,281.25
2023-03-03T14:23:29.651Z,281.25
2023-03-03T14:24:29.685Z,281.25
2023-03-03T14:25:29.632Z,281.25
2023-03-03T14:26:29.616Z,286.88
2023-03-03T14:27:29.661Z,286.88
2023-03-03T14:28:29.620Z,286.88
2023-03-03T14:29:29.552Z,281.25
2023-03-03T14:30:29.614Z,281.25
2023-03-03T14:31:29.581Z,281.25
2023-03-03T14:32:44.513Z,281.25
2023-03-03T14:33:30.506Z,281.25
2023-03-03T14:34:29.527Z,281.25
2023-03-03T14:35:29.561Z,275.62
2023-03-03T14:36:30.479Z,270.00
2023-03-03T14:37:29.448Z,275.62
2023-03-03T14:38:29.502Z,275.62
2023-03-03T14:39:29.433Z,270.00
2023-03-03T14:40:29.405Z,264.38
2023-03-03T14:41:29.368Z,264.38
2023-03-03T14:42:29.417Z,270.00
2023-03-03T14:43:29.372Z,264.38
2023-03-03T14:44:29.370Z,258.75
2023-03-03T14:45:30.626Z,253.12
2023-03-03T14:46:29.452Z,264.38
2023-03-03T14:47:36.834Z,270.00
2023-03-03T14:48:36.822Z,264.38
2023-03-03T14:49:38.029Z,264.38
2023-03-03T14:50:36.773Z,264.38
2023-03-03T14:51:36.762Z,264.38
2023-03-03T14:52:36.805Z,258.75
2023-03-03T14:53:36.811Z,258.75
2023-03-03T14:54:36.767Z,258.75
2023-03-03T14:55:37.982Z,258.75
2023-03-03T14:56:29.165Z,258.75
2023-03-03T14:57:29.175Z,253.12
2023-03-03T14:58:29.171Z,253.12
2023-03-03T14:59:29.141Z,253.12
2023-03-03T15:00:29.145Z,241.88
2023-03-03T15:01:29.121Z,241.88
2023-03-03T15:02:29.136Z,247.50
2023-03-03T15:03:29.082Z,241.88
2023-03-03T15:04:29.088Z,236.25
2023-03-03T15:05:29.064Z,236.25
2023-03-03T15:06:29.152Z,236.25
2023-03-03T15:07:29.033Z,236.25
2023-03-03T15:08:29.050Z,236.25
2023-03-03T15:09:29.014Z,236.25
2023-03-03T15:10:28.971Z,241.88
2023-03-03T15:11:28.980Z,241.88
2023-03-03T15:12:28.941Z,230.62
2023-03-03T15:13:28.959Z,213.75
2023-03-03T15:14:28.933Z,196.88
2023-03-03T15:15:28.964Z,135.00
2023-03-03T15:16:28.972Z,219.38
2023-03-03T15:17:28.881Z,213.75
2023-03-03T15:18:28.872Z,202.50
2023-03-03T15:19:28.868Z,180.00
2023-03-03T15:20:28.881Z,202.50
2023-03-03T15:21:28.828Z,196.88
2023-03-03T15:22:28.827Z,196.88
2023-03-03T15:23:28.832Z,185.62
2023-03-03T15:24:28.806Z,180.00
2023-03-03T15:25:42.353Z,180.00
2023-03-03T15:26:29.742Z,174.38
2023-03-03T15:27:28.750Z,140.62
2023-03-03T15:28:28.891Z,168.75
2023-03-03T15:29:28.712Z,157.50
2023-03-03T15:30:28.735Z,168.75
2023-03-03T15:31:28.779Z,168.75
2023-03-03T15:32:30.816Z,168.75
2023-03-03T15:33:28.706Z,157.50
2023-03-03T15:34:28.728Z,174.38
2023-03-03T15:35:28.668Z,168.75
2023-03-03T15:36:28.594Z,129.38
2023-03-03T15:37:28.604Z,118.12
2023-03-03T15:38:28.570Z,118.12
2023-03-03T15:39:37.262Z,118.12
2023-03-03T15:40:28.544Z,118.12
2023-03-03T15:41:28.511Z,112.50
2023-03-03T15:42:36.035Z,106.88
2023-03-03T15:43:28.487Z,106.88
2023-03-03T15:44:28.469Z,106.88
2023-03-03T15:45:28.547Z,101.25
2023-03-03T15:46:28.493Z,101.25
2023-03-03T15:47:28.450Z,101.25
2023-03-03T15:48:28.429Z,101.25
2023-03-03T15:49:28.425Z,101.25
2023-03-03T15:50:28.393Z,101.25
2023-03-03T15:51:28.412Z,106.88
2023-03-03T15:52:28.393Z,101.25
2023-03-03T15:53:28.415Z,129.38
2023-03-03T15:54:28.354Z,129.38
2023-03-03T15:55:28.341Z,135.00
2023-03-03T15:56:28.336Z,129.38
2023-03-03T15:57:28.356Z,123.75
2023-03-03T15:58:28.332Z,118.12
2023-03-03T15:59:28.394Z,118.12
2023-03-03T16:00:28.240Z,118.12
2023-03-03T16:01:28.295Z,112.50
2023-03-03T16:02:28.298Z,106.88
2023-03-03T16:03:28.253Z,106.88
2023-03-03T16:04:28.212Z,106.88
2023-03-03T16:05:28.296Z,95.62
2023-03-03T16:06:28.181Z,95.62
2023-03-03T16:07:28.187Z,95.62
2023-03-03T16:08:28.202Z,90.00
2023-03-03T16:09:28.132Z,84.38
2023-03-03T16:10:28.102Z,90.00
2023-03-03T16:11:28.106Z,90.00
2023-03-03T16:12:28.090Z,90.00
2023-03-03T16:13:28.165Z,90.00
2023-03-03T16:14:28.113Z,84.38
2023-03-03T16:15:28.052Z,90.00
2023-03-03T16:16:28.050Z,90.00
2023-03-03T16:17:28.042Z,84.38
2023-03-03T16:18:28.024Z,84.38
2023-03-03T16:19:28.010Z,84.38
2023-03-03T16:20:28.063Z,78.75
2023-03-03T16:21:27.989Z,78.75
2023-03-03T16:22:27.955Z,78.75
2023-03-03T16:23:27.947Z,78.75
2023-03-03T16:24:27.943Z,78.75
2023-03-03T16:25:27.919Z,78.75
2023-03-03T16:26:27.921Z,73.12
2023-03-03T16:27:27.905Z,73.12
2023-03-03T16:28:27.897Z,73.12
2023-03-03T16:29:28.382Z,73.12
2023-03-03T16:30:27.897Z,67.50
2023-03-03T16:31:27.912Z,67.50
2023-03-03T16:32:27.888Z,67.50
2023-03-03T16:33:27.823Z,61.88
2023-03-03T16:34:27.800Z,61.88
2023-03-03T16:35:27.886Z,61.88
2023-03-03T16:36:27.802Z,56.25
2023-03-03T16:37:27.792Z,56.25
2023-03-03T16:38:27.803Z,50.62
2023-03-03T16:39:27.771Z,50.62
2023-03-03T16:40:27.800Z,50.62
2023-03-03T16:41:27.754Z,50.62
2023-03-03T16:42:27.723Z,50.62
2023-03-03T16:43:27.701Z,50.62
2023-03-03T16:44:27.685Z,45.00
2023-03-03T16:45:27.804Z,45.00
2023-03-03T16:46:27.772Z,45.00
2023-03-03T16:47:27.659Z,45.00
2023-03-03T16:48:27.677Z,39.38
2023-03-03T16:49:27.637Z,39.38
2023-03-03T16:50:27.613Z,39.38
2023-03-03T16:51:27.619Z,39.38
2023-03-03T16:52:27.601Z,33.75
2023-03-03T16:53:27.602Z,33.75
2023-03-03T16:54:27.653Z,33.75
2023-03-03T16:55:27.578Z,28.12
2023-03-03T16:56:27.542Z,28.12
2023-03-03T16:57:27.531Z,28.12
2023-03-03T16:58:27.573Z,28.12
2023-03-03T16:59:27.513Z,22.50
2023-03-03T17:00:27.483Z,22.50
2023-03-03T17:01:27.482Z,22.50
2023-03-03T17:02:27.462Z,22.50
2023-03-03T17:03:27.469Z,16.88
2023-03-03T17:04:27.557Z,16.88
2023-03-03T17:05:27.485Z,16.88
2023-03-03T17:06:27.427Z,16.88
2023-03-03T17:07:27.415Z,16.88
2023-03-03T17:08:27.426Z,11.25
2023-03-03T17:09:32.976Z,11.25
2023-03-03T17:10:28.401Z,11.25
2023-03-03T17:11:27.333Z,11.25
2023-03-03T17:12:27.368Z,11.25
2023-03-03T17:13:27.323Z,5.62
2023-03-03T17:14:27.342Z,5.62
2023-03-03T17:15:27.367Z,5.62
2023-03-03T17:16:27.309Z,5.62
2023-03-03T17:17:27.285Z,5.62
2023-03-03T17:18:27.256Z,5.62
2023-03-03T17:19:27.277Z,5.62
2023-03-03T17:20:27.262Z,5.62
2023-03-03T17:21:27.262Z,5.62
2023-03-03T17:22:27.241Z,0.00
2023-03-03T17:23:27.190Z,0.00
2023-03-03T17:24:27.180Z,0.00
2023-03-03T17:25:27.157Z,0.00
2023-03-03T17:26:27.204Z,0.00
2023-03-03T17:27:27.133Z,0.00
2023-03-03T17:28:27.141Z,0.00
2023-03-03T17:29:27.217Z,0.00
2023-03-03T17:30:27.086Z,0.00
2023-03-03T17:31:27.116Z,0.00
2023-03-03T17:32:27.094Z,0.00
2023-03-03T17:33:27.072Z,0.00
2023-03-03T17:34:27.721Z,0.00
2023-03-03T17:35:27.062Z,0.00
2023-03-03T17:36:27.035Z,0.00
2023-03-03T17:37:27.115Z,0.00
2023-03-03T17:38:27.092Z,0.00
2023-03-03T17:39:26.970Z,0.00
2023-03-03T17:40:27.013Z,0.00
2023-03-03T17:41:26.964Z,0.00
2023-03-03T17:42:26.942Z,0.00
2023-03-03T17:43:26.933Z,0.00
2023-03-03T17:44:26.921Z,0.00
2023-03-03T17:45:26.900Z,0.00
2023-03-03T17:46:27.005Z,0.00
2023-03-03T17:47:26.885Z,0.00
2023-03-03T17:48:26.892Z,0.00
2023-03-03T17:49:26.856Z,0.00
2023-03-03T17:50:27.003Z,0.00
2023-03-03T17:51:26.836Z,0.00
2023-03-03T17:52:26.805Z,0.00
2023-03-03T17:53:26.793Z,0.00
2023-03-03T17:54:26.799Z,0.00
2023-03-03T17:55:26.782Z,0.00
2023-03-03T17:56:26.784Z,0.00
2023-03-03T17:57:26.737Z,0.00
2023-03-03T17:58:26.733Z,0.00
2023-03-03T17:59:26.733Z,0.00
2023-03-03T18:00:26.808Z,0.00
2023-03-03T18:01:26.818Z,0.00
2023-03-03T18:02:26.721Z,0.00
2023-03-03T18:03:26.761Z,0.00
2023-03-03T18:04:26.728Z,0.00
2023-03-03T18:05:26.649Z,0.00
2023-03-03T18:06:26.656Z,0.00
2023-03-03T18:07:26.617Z,0.00
2023-03-03T18:08:26.611Z,0.00
2023-03-03T18:09:26.625Z,0.00
2023-03-03T18:10:26.573Z,0.00
2023-03-03T18:11:26.578Z,0.00
2023-03-03T18:12:26.522Z,0.00
2023-03-03T18:13:26.528Z,0.00
2023-03-03T18:14:26.527Z,0.00
2023-03-03T18:15:26.493Z,0.00
2023-03-03T18:16:26.479Z,0.00
2023-03-03T18:17:26.464Z,0.00
2023-03-03T18:18:26.463Z,0.00
2023-03-03T18:19:26.459Z,0.00
2023-03-03T18:20:26.453Z,0.00
2023-03-03T18:21:26.436Z,0.00
2023-03-03T18:22:26.409Z,0.00
2023-03-03T18:23:26.429Z,0.00
2023-03-03T18:24:26.385Z,0.00
2023-03-03T18:25:26.393Z,0.00
2023-03-03T18:26:26.379Z,0.00
2023-03-03T18:27:26.336Z,0.00
2023-03-03T18:28:26.328Z,0.00
2023-03-03T18:29:26.346Z,0.00
2023-03-03T18:30:26.335Z,0.00
2023-03-03T18:31:26.409Z,0.00
2023-03-03T18:32:26.281Z,0.00
2023-03-03T18:33:26.281Z,0.00
2023-03-03T18:34:26.250Z,0.00
2023-03-03T18:35:26.350Z,0.00
2023-03-03T18:36:26.267Z,0.00
2023-03-03T18:37:26.197Z,0.00
2023-03-03T18:38:26.194Z,0.00
2023-03-03T18:39:26.175Z,0.00
2023-03-03T18:40:26.166Z,0.00
2023-03-03T18:41:26.158Z,0.00
2023-03-03T18:42:26.184Z,0.00
2023-03-03T18:43:26.124Z,0.00
2023-03-03T18:44:26.105Z,0.00
2023-03-03T18:45:26.102Z,0.00
2023-03-03T18:46:26.167Z,0.00
2023-03-03T18:47:26.078Z,0.00
2023-03-03T18:48:26.060Z,0.00
2023-03-03T18:49:26.042Z,0.00
2023-03-03T18:50:26.035Z,0.00
2023-03-03T18:51:26.009Z,0.00
2023-03-03T18:52:26.037Z,0.00
2023-03-03T18:53:25.991Z,0.00
2023-03-03T18:54:25.990Z,0.00
2023-03-03T18:55:25.958Z,0.00
2023-03-03T18:56:25.966Z,0.00
2023-03-03T18:57:25.959Z,0.00
2023-03-03T18:58:25.915Z,0.00
2023-03-03T18:59:25.919Z,0.00
2023-03-03T19:00:25.884Z,0.00
2023-03-03T19:01:25.905Z,0.00
2023-03-03T19:02:25.869Z,0.00
2023-03-03T19:03:25.906Z,0.00
2023-03-03T19:04:25.923Z,0.00
2023-03-03T19:05:25.835Z,0.00
2023-03-03T19:06:25.839Z,0.00
2023-03-03T19:07:25.801Z,0.00
2023-03-03T19:08:25.809Z,0.00
2023-03-03T19:09:25.772Z,0.00
2023-03-03T19:10:34.917Z,0.00